• Join FlightAware (Why Join?)
  • Login
  • US Flag 
06:26AM EDT


 

Airport Tracker/Info


-or-


 

Live Flight TrackerFlight Track Log ✈ N612FE ✈ 27-Jan-2014 ✈ WMKP / PEN - WSSS / SIN

Flight Track Log - Related Links

Times and Time Zones

All times are in EST time to prevent confusion due to time zone crossing. See the N612FE flight status page for this flight to view local times or setup timezone preferences in your user account.

Time Position Orientation Groundspeed Altitude Reporting Facility
EST Latitude Longitude Course Direction KTS MPH feet Rate Location/Type
01:36AM 5.1682 100.4132 137° Southeast  Level Estimated
01:37AM 5.1008 100.4767 137° Southeast  Level Estimated
01:38AM 5.0335 100.5402 137° Southeast  Level Estimated
01:39AM 4.9662 100.6037 137° Southeast  Level Estimated
01:40AM 4.8988 100.6672 137° Southeast  Level Estimated
01:41AM 4.8315 100.7307 137° Southeast  Level Estimated
01:42AM 4.7641 100.7941 137° Southeast  Level Estimated
01:43AM 4.6968 100.8576 137° Southeast  Level Estimated
01:44AM 4.6294 100.9210 137° Southeast  Level Estimated
01:45AM 4.5620 100.9844 137° Southeast  Level Estimated
01:46AM 4.4946 101.0479 137° Southeast  Level Estimated
01:47AM 4.4273 101.1113 137° Southeast  Level Estimated
01:48AM 4.3599 101.1746 137° Southeast  Level Estimated
01:49AM 4.2925 101.2380 137° Southeast  Level Estimated
01:49AM 3.8617 101.3007 137° Southeast 484 557 33,000  Level FlightAware ADS-B
01:49AM 3.7735 101.3265 164° South 483 556 33,000  Level FlightAware ADS-B
01:50AM 3.6875 101.3515 164° South 484 557 33,000  Level FlightAware ADS-B
01:51AM 3.6030 101.3761 164° South 483 556 33,000  Level FlightAware ADS-B
01:51AM 3.5249 101.3986 164° South 484 557 33,000  Level FlightAware ADS-B (WMSA / SZB)
01:52AM 3.4722 101.4144 163° South 483 556 33,000  Level FlightAware ADS-B
01:52AM 3.3892 101.4381 164° South 483 556 33,000  Level FlightAware ADS-B (WMSA / SZB)
01:53AM 3.3004 101.4681 161° South 481 554 33,000  Level FlightAware ADS-B
01:53AM 3.2444 101.4950 154° Southeast 480 552 33,000  Level FlightAware ADS-B (WMSA / SZB)
01:54AM 3.1815 101.5241 155° Southeast 480 552 33,000 60 Level FlightAware ADS-B
01:55AM 3.0983 101.5630 155° Southeast 480 552 33,100  Climbing FlightAware ADS-B
01:55AM 3.0153 101.6017 155° Southeast 479 551 33,000 -120 Descending FlightAware ADS-B
01:56AM 2.9366 101.6385 155° Southeast 479 551 33,000  Level FlightAware ADS-B
01:57AM 2.8567 101.6764 155° Southeast 479 551 33,000  Level FlightAware ADS-B
01:57AM 2.7741 101.7149 155° Southeast 478 550 33,000  Level FlightAware ADS-B
01:58AM 2.6996 101.7536 153° Southeast 478 550 33,000  Level FlightAware ADS-B
01:59AM 2.6289 101.7976 148° Southeast 480 552 33,000  Level FlightAware ADS-B
02:00AM 2.5278 101.8942 136° Southeast 476 548 33,000 -1,020 Level FlightAware ADS-B
02:12AM 1.5988 103.1303 118° Southeast 344 396 19,700 -1,080 Descending FlightAware ADS-B (WSAT / TGA)
02:15AM 1.5375 103.3467 106° East  Level Estimated
02:16AM 1.5123 103.4356 106° East  Level Estimated
02:17AM 1.4871 103.5245 106° East  Level Estimated
02:18AM 1.4619 103.6134 106° East  Level Estimated
02:19AM 1.4366 103.7023 106° East  Level Estimated
02:20AM 1.4114 103.7912 106° East  Level Estimated
02:21AM 1.3862 103.8801 106° East  Level Estimated
02:22AM 1.3609 103.9690 106° East  Level Estimated
02:23AM 1.3557 103.9875 106° East  Level Estimated
02:24AM 1.3557 103.9875 214° Southwest  Level Estimated
02:25AM 1.3557 103.9875 214° Southwest  Level Estimated
02:26AM 1.3557 103.9875 214° Southwest  Level Estimated
02:27AM 1.3557 103.9875 214° Southwest  Level Estimated
02:28AM 1.3557 103.9875 214° Southwest  Level Estimated
02:29AM 1.3557 103.9875 214° Southwest  Level Estimated
02:30AM 1.3557 103.9875 214° Southwest  Level Estimated